Disclaimer

Please do not use the information listed here in-flight or in-navigation, as they are not provided to us by the airports but are provided by volunteers, so they might be outdated.

Search


Regions


Airport information page

Radio informations:
Tower (TWR) - 118.7 MHz
GND/CLNC DEL - 121.75 MHz
Automatic Terminal Information Service (ATIS) - 126.25 MHz
TANJUNG PINANG A - 130.2 MHz
SINGAPORE APP - 120.3 MHz

Airport informations:
Latitude: 01° 07' 15.70" N
Longitude: 104° 07' 07.51" E
Elevation: 126 feet - 38 meters
Operating hours: Remarks
Operating agency: Civil government, landing fees and diplomatic clearance may be required
Timezone: UTC+7
Fuel: Jet A1, without icing nhibitor.

Runway information:
04/22 - 13256 x 148 feet< - >4040 x 45 meters

Recent METARs:
WIDD 201600Z 00000KT 9999 FEW014 25/24 Q1014 NOSIG
WIDD 201600Z 00000KT 9999 FEW014 25/24 Q1014 NOSIG
WIDD 201630Z 00000KT 9999 FEW014 25/24 Q1013 NOSIG

Airport on the map: